createdAt,value
2019-05-06T00:01:04.636Z,98337.30
2019-05-06T00:02:13.667Z,98340.05
2019-05-06T00:03:21.503Z,98336.45
2019-05-06T00:04:29.750Z,98332.13
2019-05-06T00:05:37.813Z,98335.84
2019-05-06T00:06:46.097Z,98339.94
2019-05-06T00:07:54.907Z,98330.80
2019-05-06T00:09:03.961Z,98335.39
2019-05-06T00:10:27.656Z,98332.86
2019-05-06T00:11:35.697Z,98332.13
2019-05-06T00:12:44.490Z,98326.81
2019-05-06T00:13:54.340Z,98332.73
2019-05-06T00:15:03.976Z,98326.09
2019-05-06T00:16:14.335Z,98318.38
2019-05-06T00:17:23.949Z,98325.47
2019-05-06T00:18:34.243Z,98325.97
2019-05-06T00:19:41.458Z,98318.48
2019-05-06T00:20:49.418Z,98325.69
2019-05-06T00:21:57.468Z,98324.48
2019-05-06T00:23:07.030Z,98324.27
2019-05-06T00:24:15.053Z,98324.26
2019-05-06T00:25:40.702Z,98326.81
2019-05-06T00:26:57.265Z,98322.11
2019-05-06T00:28:21.455Z,98326.55
2019-05-06T00:29:30.340Z,98322.25
2019-05-06T00:30:40.136Z,98322.25
2019-05-06T00:31:48.357Z,98328.02
2019-05-06T00:32:56.189Z,98329.46
2019-05-06T00:34:04.565Z,98331.98
2019-05-06T00:35:14.230Z,98326.59
2019-05-06T00:36:23.725Z,98328.16
2019-05-06T00:37:32.019Z,98328.40
2019-05-06T00:38:41.108Z,98326.33
2019-05-06T00:39:48.905Z,98334.04
2019-05-06T00:41:01.223Z,98334.52
2019-05-06T00:42:20.056Z,98325.00
2019-05-06T00:43:27.917Z,98324.54
2019-05-06T00:44:35.779Z,98326.44
2019-05-06T00:45:44.379Z,98332.47
2019-05-06T00:46:54.473Z,98325.13
2019-05-06T00:48:04.507Z,98328.98
2019-05-06T00:49:11.935Z,98326.33
2019-05-06T00:50:19.927Z,98319.18
2019-05-06T00:51:28.005Z,98327.48
2019-05-06T00:52:37.010Z,98325.20
2019-05-06T00:53:50.366Z,98326.65
2019-05-06T00:54:58.538Z,98319.45
2019-05-06T00:56:06.490Z,98321.39
2019-05-06T00:57:14.548Z,98322.45
2019-05-06T00:58:23.815Z,98316.83
2019-05-06T00:59:34.413Z,98322.36
2019-05-06T01:00:44.165Z,98315.38
2019-05-06T01:01:53.740Z,98324.38
2019-05-06T01:03:01.487Z,98324.74
2019-05-06T01:04:09.472Z,98331.27
2019-05-06T01:05:18.391Z,98325.25
2019-05-06T01:06:26.718Z,98323.67
2019-05-06T01:07:34.830Z,98327.77
2019-05-06T01:08:44.020Z,98324.88
2019-05-06T01:09:54.195Z,98327.03
2019-05-06T01:11:04.047Z,98328.25
2019-05-06T01:12:14.218Z,98323.17
2019-05-06T01:13:35.600Z,98324.72
2019-05-06T01:14:45.587Z,98320.52
2019-05-06T01:15:54.752Z,98326.66
2019-05-06T01:17:03.980Z,98318.11
2019-05-06T01:18:13.801Z,98323.04
2019-05-06T01:19:23.542Z,98318.82
2019-05-06T01:20:33.787Z,98311.73
2019-05-06T01:21:41.628Z,98317.98
2019-05-06T01:22:50.333Z,98314.28
2019-05-06T01:23:58.428Z,98321.67
2019-05-06T01:25:08.194Z,98324.47
2019-05-06T01:26:18.315Z,98321.94
2019-05-06T01:27:26.376Z,98319.17
2019-05-06T01:28:34.429Z,98316.64
2019-05-06T01:29:44.118Z,98322.27
2019-05-06T01:30:53.563Z,98327.33
2019-05-06T01:32:03.552Z,98320.62
2019-05-06T01:33:11.575Z,98320.85
2019-05-06T01:34:19.416Z,98323.73
2019-05-06T01:35:27.231Z,98318.23
2019-05-06T01:36:35.328Z,98322.17
2019-05-06T01:37:45.079Z,98324.92
2019-05-06T01:39:11.134Z,98323.84
2019-05-06T01:40:36.380Z,98322.63
2019-05-06T01:41:44.736Z,98322.42
2019-05-06T01:42:54.460Z,98317.56
2019-05-06T01:44:04.220Z,98315.20
2019-05-06T01:45:14.170Z,98317.48
2019-05-06T01:46:24.289Z,98311.26
2019-05-06T01:47:34.448Z,98309.33
2019-05-06T01:48:48.746Z,98311.95
2019-05-06T01:49:56.884Z,98317.37
2019-05-06T01:51:05.075Z,98314.63
2019-05-06T01:52:14.714Z,98319.80
2019-05-06T01:53:24.148Z,98321.00
2019-05-06T01:54:34.161Z,98329.97
2019-05-06T01:55:43.685Z,98327.47
2019-05-06T01:56:53.674Z,98332.73
2019-05-06T01:58:01.632Z,98339.11
2019-05-06T01:59:09.813Z,98340.22
2019-05-06T02:00:17.852Z,98343.86
2019-05-06T02:01:26.075Z,98342.16
2019-05-06T02:02:34.339Z,98343.12
2019-05-06T02:03:44.159Z,98341.57
2019-05-06T02:04:53.520Z,98339.19
2019-05-06T02:06:01.623Z,98335.44
2019-05-06T02:07:09.740Z,98338.94
2019-05-06T02:08:17.802Z,98335.20
2019-05-06T02:09:25.719Z,98340.39
2019-05-06T02:10:34.945Z,98334.97
2019-05-06T02:11:44.441Z,98332.20
2019-05-06T02:12:54.060Z,98332.45
2019-05-06T02:14:04.590Z,98333.63
2019-05-06T02:15:14.470Z,98337.14
2019-05-06T02:16:23.903Z,98335.92
2019-05-06T02:17:31.527Z,98327.03
2019-05-06T02:18:39.648Z,98337.39
2019-05-06T02:19:47.943Z,98331.87
2019-05-06T02:21:05.435Z,98333.77
2019-05-06T02:22:15.455Z,98334.48
2019-05-06T02:23:37.264Z,98330.53
2019-05-06T02:24:46.796Z,98335.58
2019-05-06T02:25:55.543Z,98336.91
2019-05-06T02:27:04.505Z,98335.97
2019-05-06T02:28:14.309Z,98333.41
2019-05-06T02:29:27.068Z,98331.05
2019-05-06T02:30:45.421Z,98334.39
2019-05-06T02:32:16.171Z,98329.09
2019-05-06T02:33:17.885Z,98334.02
2019-05-06T02:34:46.033Z,98329.09
2019-05-06T02:36:14.918Z,98333.79
2019-05-06T02:37:35.075Z,98334.26
2019-05-06T02:38:50.439Z,98327.17
2019-05-06T02:39:53.752Z,98337.64
2019-05-06T02:41:03.439Z,98336.19
2019-05-06T02:42:13.037Z,98339.67
2019-05-06T02:43:23.226Z,98337.30
2019-05-06T02:44:33.616Z,98340.42
2019-05-06T02:45:43.292Z,98344.73
2019-05-06T02:46:53.372Z,98338.58
2019-05-06T02:48:09.214Z,98341.23
2019-05-06T02:49:36.714Z,98336.78
2019-05-06T02:50:44.436Z,98336.78
2019-05-06T02:51:53.434Z,98340.05
2019-05-06T02:53:02.678Z,98334.48
2019-05-06T02:54:13.388Z,98336.30
2019-05-06T02:55:23.387Z,98330.77
2019-05-06T02:56:33.351Z,98337.98
2019-05-06T02:57:43.672Z,98327.14
2019-05-06T02:58:53.529Z,98334.97
2019-05-06T03:00:04.755Z,98333.50
2019-05-06T03:01:13.381Z,98329.78
2019-05-06T03:02:35.581Z,98327.64
2019-05-06T03:03:29.358Z,98333.54
2019-05-06T03:04:37.260Z,98327.64
2019-05-06T03:05:45.283Z,98328.10
2019-05-06T03:06:53.466Z,98333.29
2019-05-06T03:08:03.274Z,98325.70
2019-05-06T03:09:13.476Z,98322.83
2019-05-06T03:10:24.664Z,98328.48
2019-05-06T03:11:33.196Z,98326.08
2019-05-06T03:12:43.039Z,98327.98
2019-05-06T03:13:53.505Z,98325.45
2019-05-06T03:15:03.330Z,98334.59
2019-05-06T03:16:10.312Z,98332.80
2019-05-06T03:17:18.511Z,98335.20
2019-05-06T03:18:26.489Z,98333.73
2019-05-06T03:19:36.328Z,98332.55
2019-05-06T03:20:57.488Z,98337.03
2019-05-06T03:22:13.155Z,98333.05
2019-05-06T03:23:24.670Z,98331.47
2019-05-06T03:24:37.340Z,98327.98
2019-05-06T03:25:48.054Z,98327.87
2019-05-06T03:26:56.825Z,98329.05
2019-05-06T03:28:05.601Z,98322.45
2019-05-06T03:29:14.003Z,98323.25
2019-05-06T03:30:25.457Z,98325.69
2019-05-06T03:31:36.506Z,98316.05
2019-05-06T03:33:21.552Z,98326.75
2019-05-06T03:34:16.195Z,98322.91
2019-05-06T03:35:25.764Z,98323.12
2019-05-06T03:36:23.693Z,98318.67
2019-05-06T03:37:23.888Z,98325.98
2019-05-06T03:38:33.501Z,98325.89
2019-05-06T03:39:43.430Z,98326.97
2019-05-06T03:40:53.796Z,98327.33
2019-05-06T03:42:04.221Z,98326.13
2019-05-06T03:43:13.669Z,98327.47
2019-05-06T03:44:23.627Z,98318.95
2019-05-06T03:45:33.575Z,98323.27
2019-05-06T03:46:45.883Z,98330.06
2019-05-06T03:48:05.509Z,98318.66
2019-05-06T03:49:13.511Z,98314.08
2019-05-06T03:50:24.053Z,98323.19
2019-05-06T03:51:34.287Z,98320.19
2019-05-06T03:52:43.010Z,98321.20
2019-05-06T03:53:54.319Z,98323.72
2019-05-06T03:55:03.671Z,98316.73
2019-05-06T03:56:16.852Z,98317.60
2019-05-06T03:57:24.364Z,98316.53
2019-05-06T03:58:35.998Z,98318.48
2019-05-06T03:59:45.149Z,98322.20
2019-05-06T04:00:54.975Z,98327.01
2019-05-06T04:02:05.165Z,98324.36
2019-05-06T04:03:14.050Z,98319.79
2019-05-06T04:04:23.355Z,98329.17
2019-05-06T04:05:33.424Z,98328.94
2019-05-06T04:06:43.651Z,98325.81
2019-05-06T04:07:53.364Z,98331.69
2019-05-06T04:09:03.632Z,98329.63
2019-05-06T04:10:13.632Z,98328.67
2019-05-06T04:11:23.962Z,98323.86
2019-05-06T04:12:34.988Z,98329.39
2019-05-06T04:13:43.669Z,98323.50
2019-05-06T04:14:53.983Z,98325.69
2019-05-06T04:16:08.398Z,98330.83
2019-05-06T04:17:24.562Z,98328.33
2019-05-06T04:18:37.199Z,98322.58
2019-05-06T04:19:46.953Z,98321.73
2019-05-06T04:20:57.971Z,98333.63
2019-05-06T04:22:07.718Z,98331.56
2019-05-06T04:23:17.773Z,98331.48
2019-05-06T04:24:25.857Z,98330.52
2019-05-06T04:25:39.540Z,98336.16
2019-05-06T04:26:58.123Z,98334.36
2019-05-06T04:28:08.298Z,98337.98
2019-05-06T04:29:17.231Z,98331.56
2019-05-06T04:30:25.069Z,98334.20
2019-05-06T04:31:33.873Z,98333.38
2019-05-06T04:32:43.383Z,98328.83
2019-05-06T04:34:08.684Z,98328.71
2019-05-06T04:35:04.448Z,98327.87
2019-05-06T04:36:13.237Z,98332.05
2019-05-06T04:37:23.917Z,98332.16
2019-05-06T04:38:33.502Z,98330.67
2019-05-06T04:39:43.394Z,98336.97
2019-05-06T04:40:53.795Z,98332.16
2019-05-06T04:42:03.547Z,98335.77
2019-05-06T04:43:13.367Z,98337.28
2019-05-06T04:44:23.765Z,98341.66
2019-05-06T04:45:33.737Z,98338.20
2019-05-06T04:46:44.294Z,98343.62
2019-05-06T04:47:53.724Z,98345.45
2019-05-06T04:49:04.060Z,98340.39
2019-05-06T04:50:13.340Z,98345.74
2019-05-06T04:51:24.816Z,98345.78
2019-05-06T04:52:34.163Z,98354.06
2019-05-06T04:53:44.011Z,98351.66
2019-05-06T04:54:53.382Z,98353.09
2019-05-06T04:56:03.896Z,98351.44
2019-05-06T04:57:12.901Z,98350.26
2019-05-06T04:58:23.277Z,98350.62
2019-05-06T04:59:32.566Z,98351.23
2019-05-06T05:00:44.085Z,98353.16
2019-05-06T05:01:53.193Z,98355.55
2019-05-06T05:03:03.042Z,98351.44
2019-05-06T05:04:24.549Z,98349.99
2019-05-06T05:05:22.996Z,98346.90
2019-05-06T05:06:32.863Z,98347.62
2019-05-06T05:07:42.579Z,98346.19
2019-05-06T05:08:53.036Z,98358.08
2019-05-06T05:10:03.606Z,98348.92
2019-05-06T05:11:23.766Z,98341.75
2019-05-06T05:12:45.611Z,98344.38
2019-05-06T05:13:55.703Z,98345.33
2019-05-06T05:15:05.612Z,98347.97
2019-05-06T05:16:22.281Z,98350.52
2019-05-06T05:17:33.098Z,98340.41
2019-05-06T05:18:54.794Z,98345.61
2019-05-06T05:20:03.162Z,98339.31
2019-05-06T05:21:11.903Z,98344.12
2019-05-06T05:22:21.847Z,98339.81
2019-05-06T05:23:31.824Z,98346.44
2019-05-06T05:24:39.681Z,98345.97
2019-05-06T05:25:48.068Z,98351.24
2019-05-06T05:26:56.419Z,98352.09
2019-05-06T05:28:04.613Z,98358.36
2019-05-06T05:29:12.842Z,98354.86
2019-05-06T05:30:21.984Z,98355.49
2019-05-06T05:31:30.276Z,98357.86
2019-05-06T05:32:38.228Z,98356.19
2019-05-06T05:33:46.414Z,98356.42
2019-05-06T05:34:54.682Z,98357.27
2019-05-06T05:36:02.566Z,98361.34
2019-05-06T05:37:12.141Z,98356.77
2019-05-06T05:38:22.766Z,98358.95
2019-05-06T05:39:30.583Z,98348.94
2019-05-06T05:40:39.041Z,98349.69
2019-05-06T05:41:47.247Z,98352.23
2019-05-06T05:43:06.337Z,98363.59
2019-05-06T05:44:18.933Z,98358.41
2019-05-06T05:45:27.247Z,98362.28
2019-05-06T05:46:35.260Z,98353.05
2019-05-06T05:47:43.695Z,98353.27
2019-05-06T05:48:59.558Z,98351.96
2019-05-06T05:50:28.123Z,98342.93
2019-05-06T05:51:36.537Z,98350.09
2019-05-06T05:52:45.056Z,98355.28
2019-05-06T05:53:53.194Z,98351.59
2019-05-06T05:55:02.724Z,98355.09
2019-05-06T05:56:12.352Z,98361.31
2019-05-06T05:57:22.602Z,98354.48
2019-05-06T05:58:32.973Z,98361.59
2019-05-06T05:59:42.244Z,98364.92
2019-05-06T06:00:52.086Z,98366.23
2019-05-06T06:02:00.463Z,98363.23
2019-05-06T06:03:09.059Z,98363.58
2019-05-06T06:04:17.286Z,98372.48
2019-05-06T06:05:25.460Z,98369.84
2019-05-06T06:06:33.809Z,98373.01
2019-05-06T06:07:42.310Z,98372.02
2019-05-06T06:08:52.353Z,98372.13
2019-05-06T06:10:04.796Z,98371.43
2019-05-06T06:11:14.796Z,98371.08
2019-05-06T06:12:23.459Z,98363.75
2019-05-06T06:13:32.070Z,98364.97
2019-05-06T06:14:40.416Z,98370.70
2019-05-06T06:15:52.809Z,98370.84
2019-05-06T06:17:02.685Z,98376.39
2019-05-06T06:18:25.777Z,98368.84
2019-05-06T06:19:47.888Z,98372.59
2019-05-06T06:21:17.580Z,98365.82
2019-05-06T06:22:19.994Z,98369.20
2019-05-06T06:23:32.473Z,98362.70
2019-05-06T06:24:42.803Z,98360.67
2019-05-06T06:25:52.771Z,98361.52
2019-05-06T06:27:02.895Z,98363.67
2019-05-06T06:28:11.960Z,98367.77
2019-05-06T06:29:19.982Z,98369.33
2019-05-06T06:30:29.627Z,98360.54
2019-05-06T06:31:39.995Z,98361.73
2019-05-06T06:32:48.454Z,98358.00
2019-05-06T06:33:58.738Z,98358.48
2019-05-06T06:35:14.167Z,98358.98
2019-05-06T06:36:38.840Z,98361.49
2019-05-06T06:37:48.671Z,98358.95
2019-05-06T06:38:58.320Z,98360.66
2019-05-06T06:40:13.084Z,98364.51
2019-05-06T06:41:22.792Z,98363.92
2019-05-06T06:42:33.362Z,98362.34
2019-05-06T06:43:42.125Z,98359.34
2019-05-06T06:44:52.074Z,98363.07
2019-05-06T06:46:02.526Z,98359.45
2019-05-06T06:47:12.427Z,98359.45
2019-05-06T06:48:22.804Z,98351.75
2019-05-06T06:49:32.738Z,98355.23
2019-05-06T06:50:42.578Z,98354.53
2019-05-06T06:51:53.246Z,98354.66
2019-05-06T06:53:03.009Z,98357.66
2019-05-06T06:54:12.295Z,98360.31
2019-05-06T06:55:22.407Z,98354.41
2019-05-06T06:56:32.982Z,98351.99
2019-05-06T06:57:52.753Z,98344.77
2019-05-06T06:59:16.632Z,98341.03
2019-05-06T07:00:26.204Z,98342.47
2019-05-06T07:01:36.750Z,98338.98
2019-05-06T07:02:49.633Z,98345.73
2019-05-06T07:04:06.796Z,98334.80
2019-05-06T07:05:28.326Z,98337.89
2019-05-06T07:06:42.335Z,98348.97
2019-05-06T07:07:52.920Z,98342.84
2019-05-06T07:09:00.259Z,98339.94
2019-05-06T07:10:27.374Z,98337.03
2019-05-06T07:11:35.483Z,98339.59
2019-05-06T07:12:43.393Z,98340.78
2019-05-06T07:13:55.624Z,98344.53
2019-05-06T07:15:04.165Z,98343.17
2019-05-06T07:16:12.390Z,98339.33
2019-05-06T07:17:22.715Z,98348.25
2019-05-06T07:18:30.288Z,98343.20
2019-05-06T07:19:42.141Z,98341.98
2019-05-06T07:20:54.296Z,98341.14
2019-05-06T07:22:02.917Z,98342.08
2019-05-06T07:23:28.897Z,98348.13
2019-05-06T07:24:37.132Z,98344.89
2019-05-06T07:25:45.439Z,98343.66
2019-05-06T07:27:04.851Z,98335.75
2019-05-06T07:28:13.592Z,98332.83
2019-05-06T07:29:26.351Z,98351.40
2019-05-06T07:30:33.269Z,98345.74
2019-05-06T07:31:42.643Z,98342.13
2019-05-06T07:32:52.741Z,98334.17
2019-05-06T07:34:02.599Z,98353.66
2019-05-06T07:35:12.887Z,98350.41
2019-05-06T07:36:22.694Z,98351.02
2019-05-06T07:37:32.640Z,98357.64
2019-05-06T07:38:42.753Z,98354.15
2019-05-06T07:39:52.947Z,98355.94
2019-05-06T07:41:14.844Z,98355.58
2019-05-06T07:42:23.056Z,98355.59
2019-05-06T07:43:33.930Z,98366.29
2019-05-06T07:45:00.133Z,98364.27
2019-05-06T07:46:15.938Z,98367.14
2019-05-06T07:47:33.166Z,98367.50
2019-05-06T07:48:42.768Z,98366.30
2019-05-06T07:49:53.045Z,98366.07
2019-05-06T07:51:02.900Z,98372.33
2019-05-06T07:52:12.348Z,98365.59
2019-05-06T07:53:19.953Z,98372.70
2019-05-06T07:54:27.895Z,98365.73
2019-05-06T07:55:36.837Z,98378.36
2019-05-06T07:56:45.052Z,98360.43
2019-05-06T07:57:53.569Z,98373.31
2019-05-06T07:59:03.277Z,98372.35
2019-05-06T08:00:12.552Z,98374.53
2019-05-06T08:01:25.502Z,98367.53
2019-05-06T08:02:32.109Z,98373.91
2019-05-06T08:03:42.605Z,98370.42
2019-05-06T08:04:52.941Z,98376.81
2019-05-06T08:06:02.523Z,98368.97
2019-05-06T08:07:12.374Z,98376.06
2019-05-06T08:08:19.931Z,98367.89
2019-05-06T08:09:27.976Z,98376.81
2019-05-06T08:10:35.975Z,98375.13
2019-05-06T08:11:44.112Z,98376.67
2019-05-06T08:12:52.735Z,98364.88
2019-05-06T08:14:02.191Z,98372.35
2019-05-06T08:15:12.699Z,98369.81
2019-05-06T08:16:22.580Z,98371.74
2019-05-06T08:17:33.056Z,98372.81
2019-05-06T08:18:42.533Z,98376.19
2019-05-06T08:19:52.957Z,98383.43
2019-05-06T08:21:03.604Z,98383.41
2019-05-06T08:22:16.036Z,98387.52
2019-05-06T08:23:32.540Z,98391.02
2019-05-06T08:24:42.276Z,98394.02
2019-05-06T08:25:54.303Z,98398.59
2019-05-06T08:27:02.903Z,98398.94
2019-05-06T08:28:13.245Z,98394.84
2019-05-06T08:29:22.491Z,98408.48
2019-05-06T08:30:32.374Z,98403.41
2019-05-06T08:31:42.945Z,98409.65
2019-05-06T08:32:50.210Z,98419.91
2019-05-06T08:33:58.913Z,98418.34
2019-05-06T08:35:10.034Z,98414.35
2019-05-06T08:36:29.016Z,98419.42
2019-05-06T08:37:38.771Z,98419.91
2019-05-06T08:39:02.539Z,98420.75
2019-05-06T08:40:11.996Z,98422.67
2019-05-06T08:41:22.641Z,98419.06
2019-05-06T08:42:30.356Z,98421.23
2019-05-06T08:43:38.406Z,98422.30
2019-05-06T08:44:46.599Z,98414.50
2019-05-06T08:45:54.961Z,98412.80
2019-05-06T08:47:02.856Z,98411.38
2019-05-06T08:48:12.842Z,98411.47
2019-05-06T08:49:22.533Z,98397.52
2019-05-06T08:50:36.219Z,98400.52
2019-05-06T08:51:45.923Z,98401.00
2019-05-06T08:53:06.131Z,98397.03
2019-05-06T08:54:22.729Z,98397.61
2019-05-06T08:55:32.720Z,98390.53
2019-05-06T08:56:42.719Z,98389.92
2019-05-06T08:57:52.729Z,98390.85
2019-05-06T08:59:00.159Z,98398.31
2019-05-06T09:00:08.567Z,98390.10
2019-05-06T09:01:35.958Z,98396.76
2019-05-06T09:02:46.164Z,98394.33
2019-05-06T09:04:06.439Z,98385.42
2019-05-06T09:05:03.461Z,98389.66
2019-05-06T09:06:26.033Z,98386.16
2019-05-06T09:07:21.426Z,98393.88
2019-05-06T09:08:32.447Z,98382.50
2019-05-06T09:09:42.110Z,98382.73
2019-05-06T09:10:52.129Z,98381.19
2019-05-06T09:12:02.487Z,98383.22
2019-05-06T09:13:12.329Z,98380.84
2019-05-06T09:14:22.928Z,98379.03
2019-05-06T09:15:32.553Z,98377.93
2019-05-06T09:16:43.780Z,98369.37
2019-05-06T09:17:52.600Z,98368.60
2019-05-06T09:19:04.363Z,98365.20
2019-05-06T09:20:12.914Z,98360.84
2019-05-06T09:21:22.676Z,98365.11
2019-05-06T09:22:32.442Z,98361.82
2019-05-06T09:23:42.206Z,98362.37
2019-05-06T09:24:49.969Z,98355.54
2019-05-06T09:25:58.352Z,98362.69
2019-05-06T09:27:12.289Z,98366.58
2019-05-06T09:28:33.753Z,98364.02
2019-05-06T09:29:43.036Z,98370.23
2019-05-06T09:30:53.011Z,98373.23
2019-05-06T09:32:02.626Z,98370.98
2019-05-06T09:33:12.836Z,98372.24
2019-05-06T09:34:20.245Z,98375.26
2019-05-06T09:35:28.451Z,98371.27
2019-05-06T09:36:43.746Z,98374.27
2019-05-06T09:37:46.188Z,98368.14
2019-05-06T09:38:54.891Z,98366.61
2019-05-06T09:40:03.185Z,98353.91
2019-05-06T09:41:12.447Z,98368.16
2019-05-06T09:42:23.070Z,98361.50
2019-05-06T09:43:32.810Z,98367.84
2019-05-06T09:44:42.675Z,98363.16
2019-05-06T09:45:52.840Z,98365.41
2019-05-06T09:47:02.403Z,98370.86
2019-05-06T09:48:28.535Z,98365.02
2019-05-06T09:49:38.374Z,98363.17
2019-05-06T09:50:47.790Z,98372.05
2019-05-06T09:51:56.223Z,98369.52
2019-05-06T09:53:04.815Z,98365.06
2019-05-06T09:54:23.355Z,98372.02
2019-05-06T09:55:48.764Z,98371.80
2019-05-06T09:56:58.651Z,98369.50
2019-05-06T09:58:08.343Z,98371.45
2019-05-06T09:59:16.743Z,98372.76
2019-05-06T10:00:25.591Z,98365.28
2019-05-06T10:01:33.597Z,98373.80
2019-05-06T10:02:42.983Z,98370.70
2019-05-06T10:03:52.934Z,98363.94
2019-05-06T10:05:03.617Z,98371.42
2019-05-06T10:06:13.115Z,98368.76
2019-05-06T10:07:22.574Z,98364.52
2019-05-06T10:08:32.326Z,98367.23
2019-05-06T10:09:43.213Z,98366.59
2019-05-06T10:10:58.570Z,98372.41
2019-05-06T10:12:02.058Z,98365.88
2019-05-06T10:13:09.977Z,98360.95
2019-05-06T10:14:18.176Z,98359.98
2019-05-06T10:15:26.810Z,98363.94
2019-05-06T10:16:34.964Z,98362.74
2019-05-06T10:17:43.170Z,98359.86
2019-05-06T10:18:52.425Z,98355.14
2019-05-06T10:20:02.896Z,98355.88
2019-05-06T10:21:12.353Z,98358.28
2019-05-06T10:22:20.163Z,98358.50
2019-05-06T10:23:28.683Z,98357.05
2019-05-06T10:24:36.928Z,98348.30
2019-05-06T10:25:45.644Z,98360.94
2019-05-06T10:26:58.143Z,98361.28
2019-05-06T10:28:14.941Z,98357.84
2019-05-06T10:29:24.733Z,98356.78
2019-05-06T10:30:33.260Z,98366.55
2019-05-06T10:31:43.167Z,98365.80
2019-05-06T10:32:53.203Z,98361.59
2019-05-06T10:34:13.969Z,98358.45
2019-05-06T10:35:22.497Z,98360.53
2019-05-06T10:36:36.751Z,98360.05
2019-05-06T10:38:08.654Z,98362.92
2019-05-06T10:39:20.029Z,98359.56
2019-05-06T10:40:35.378Z,98368.94
2019-05-06T10:41:47.952Z,98373.66
2019-05-06T10:43:12.338Z,98372.72
2019-05-06T10:44:32.867Z,98367.64
2019-05-06T10:45:42.542Z,98362.57
2019-05-06T10:46:52.447Z,98362.80
2019-05-06T10:48:02.201Z,98363.27
2019-05-06T10:49:09.843Z,98347.95
2019-05-06T10:50:18.157Z,98354.84
2019-05-06T10:51:38.060Z,98358.59
2019-05-06T10:52:51.861Z,98362.44
2019-05-06T10:53:59.860Z,98356.03
2019-05-06T10:55:08.460Z,98360.27
2019-05-06T10:56:27.905Z,98354.84
2019-05-06T10:57:40.517Z,98354.80
2019-05-06T10:58:48.505Z,98352.41
2019-05-06T10:59:56.442Z,98349.63
2019-05-06T11:01:16.044Z,98350.34
2019-05-06T11:02:25.808Z,98351.75
2019-05-06T11:03:33.868Z,98345.03
2019-05-06T11:04:42.585Z,98347.33
2019-05-06T11:05:53.443Z,98340.58
2019-05-06T11:07:03.852Z,98346.98
2019-05-06T11:08:10.914Z,98341.26
2019-05-06T11:09:19.315Z,98342.16
2019-05-06T11:10:33.973Z,98339.72
2019-05-06T11:11:38.664Z,98343.09
2019-05-06T11:12:46.764Z,98338.23
2019-05-06T11:13:55.232Z,98340.90
2019-05-06T11:15:03.749Z,98338.47
2019-05-06T11:16:12.937Z,98342.19
2019-05-06T11:17:23.275Z,98338.45
2019-05-06T11:18:33.142Z,98338.70
2019-05-06T11:19:42.635Z,98334.92
2019-05-06T11:20:55.798Z,98343.19
2019-05-06T11:22:00.473Z,98341.56
2019-05-06T11:23:08.659Z,98339.94
2019-05-06T11:24:17.279Z,98340.67
2019-05-06T11:25:25.178Z,98341.51
2019-05-06T11:26:33.357Z,98349.52
2019-05-06T11:27:44.923Z,98341.45
2019-05-06T11:28:53.122Z,98340.61
2019-05-06T11:30:02.988Z,98342.00
2019-05-06T11:31:18.544Z,98336.14
2019-05-06T11:32:32.601Z,98332.08
2019-05-06T11:33:49.268Z,98338.77
2019-05-06T11:34:59.105Z,98341.28
2019-05-06T11:36:25.030Z,98340.44
2019-05-06T11:37:50.525Z,98336.94
2019-05-06T11:38:56.789Z,98336.20
2019-05-06T11:40:06.543Z,98341.34
2019-05-06T11:41:14.597Z,98337.56
2019-05-06T11:42:31.874Z,98337.45
2019-05-06T11:43:32.714Z,98334.17
2019-05-06T11:44:43.765Z,98343.57
2019-05-06T11:45:52.163Z,98339.93
2019-05-06T11:47:03.196Z,98335.36
2019-05-06T11:48:14.301Z,98342.59
2019-05-06T11:49:20.334Z,98341.77
2019-05-06T11:50:28.256Z,98337.62
2019-05-06T11:51:36.560Z,98332.32
2019-05-06T11:52:44.557Z,98341.42
2019-05-06T11:53:54.122Z,98343.40
2019-05-06T11:55:02.528Z,98331.17
2019-05-06T11:56:12.587Z,98328.08
2019-05-06T11:57:20.600Z,98335.37
2019-05-06T11:58:42.469Z,98336.78
2019-05-06T11:59:52.578Z,98338.66
2019-05-06T12:01:02.721Z,98334.47
2019-05-06T12:02:15.686Z,98328.56
2019-05-06T12:03:23.817Z,98335.75
2019-05-06T12:04:32.939Z,98335.95
2019-05-06T12:05:41.852Z,98326.59
2019-05-06T12:06:52.448Z,98324.63
2019-05-06T12:08:07.244Z,98329.60
2019-05-06T12:09:16.021Z,98330.99
2019-05-06T12:10:22.487Z,98322.84
2019-05-06T12:11:30.898Z,98327.97
2019-05-06T12:12:39.531Z,98323.63
2019-05-06T12:13:48.107Z,98326.48
2019-05-06T12:14:56.119Z,98331.13
2019-05-06T12:16:04.536Z,98319.91
2019-05-06T12:17:12.863Z,98323.91
2019-05-06T12:18:23.085Z,98325.28
2019-05-06T12:19:32.412Z,98325.17
2019-05-06T12:20:42.598Z,98306.87
2019-05-06T12:21:50.530Z,98323.77
2019-05-06T12:22:58.837Z,98318.07
2019-05-06T12:24:06.831Z,98311.83
2019-05-06T12:25:15.766Z,98313.30
2019-05-06T12:26:23.977Z,98314.34
2019-05-06T12:27:47.648Z,98316.95
2019-05-06T12:28:55.739Z,98314.87
2019-05-06T12:30:06.032Z,98319.05
2019-05-06T12:31:14.142Z,98308.44
2019-05-06T12:32:26.697Z,98307.11
2019-05-06T12:33:36.426Z,98308.06
2019-05-06T12:34:44.657Z,98300.14
2019-05-06T12:35:52.792Z,98310.69
2019-05-06T12:37:02.733Z,98311.33
2019-05-06T12:38:26.732Z,98312.84
2019-05-06T12:39:23.932Z,98307.92
2019-05-06T12:40:32.165Z,98315.85
2019-05-06T12:41:53.265Z,98311.38
2019-05-06T12:43:18.454Z,98311.87
2019-05-06T12:44:26.793Z,98301.68
2019-05-06T12:45:39.546Z,98299.06
2019-05-06T12:46:52.900Z,98304.38
2019-05-06T12:48:05.757Z,98304.80
2019-05-06T12:49:13.862Z,98299.96
2019-05-06T12:50:22.763Z,98298.67
2019-05-06T12:51:32.314Z,98311.05
2019-05-06T12:52:44.206Z,98307.48
2019-05-06T12:53:52.929Z,98306.80
2019-05-06T12:55:17.041Z,98307.83
2019-05-06T12:56:12.551Z,98300.98
2019-05-06T12:57:23.190Z,98308.53
2019-05-06T12:58:31.760Z,98309.07
2019-05-06T12:59:42.336Z,98297.97
2019-05-06T13:00:49.927Z,98300.40
2019-05-06T13:01:58.187Z,98302.56
2019-05-06T13:03:06.501Z,98300.95
2019-05-06T13:04:14.486Z,98300.45
2019-05-06T13:05:22.496Z,98299.91
2019-05-06T13:06:30.368Z,98301.62
2019-05-06T13:07:41.981Z,98299.66
2019-05-06T13:08:58.782Z,98300.84
2019-05-06T13:10:02.819Z,98304.62
2019-05-06T13:11:12.970Z,98301.62
2019-05-06T13:12:23.177Z,98302.02
2019-05-06T13:13:33.198Z,98308.18
2019-05-06T13:14:43.071Z,98306.10
2019-05-06T13:15:52.773Z,98302.75
2019-05-06T13:17:02.709Z,98307.84
2019-05-06T13:18:10.935Z,98305.75
2019-05-06T13:19:19.255Z,98302.89
2019-05-06T13:20:27.230Z,98302.20
2019-05-06T13:21:35.481Z,98302.17
2019-05-06T13:23:09.618Z,98303.44
2019-05-06T13:24:12.243Z,98301.92
2019-05-06T13:25:20.386Z,98295.91
2019-05-06T13:26:28.530Z,98303.84
2019-05-06T13:27:36.649Z,98302.02
2019-05-06T13:28:46.735Z,98304.69
2019-05-06T13:29:55.143Z,98303.55
2019-05-06T13:31:15.884Z,98303.70
2019-05-06T13:32:15.006Z,98303.15
2019-05-06T13:33:34.016Z,98305.17
2019-05-06T13:34:42.452Z,98313.50
2019-05-06T13:35:52.561Z,98310.05
2019-05-06T13:37:00.534Z,98308.18
2019-05-06T13:38:08.704Z,98310.53
2019-05-06T13:39:17.209Z,98304.91
2019-05-06T13:40:27.206Z,98305.61
2019-05-06T13:41:34.940Z,98305.28
2019-05-06T13:42:44.691Z,98305.40
2019-05-06T13:43:57.172Z,98305.53
2019-05-06T13:45:07.217Z,98304.38
2019-05-06T13:46:19.937Z,98304.63
2019-05-06T13:47:45.735Z,98309.91
2019-05-06T13:48:59.467Z,98308.43
2019-05-06T13:50:09.295Z,98306.03
2019-05-06T13:51:33.972Z,98307.86